sensor_id;sensor_type;location;lat;lon;timestamp;temperature;humidity
69464;DHT22;56665;41.106;16.688;2022-10-16T00:02:39;15.78;87.17
69464;DHT22;56665;41.106;16.688;2022-10-16T00:05:43;15.81;87.22
69464;DHT22;56665;41.106;16.688;2022-10-16T00:08:47;15.81;87.15
69464;DHT22;56665;41.106;16.688;2022-10-16T00:11:51;15.81;87.13
69464;DHT22;56665;41.106;16.688;2022-10-16T00:14:57;15.80;87.06
69464;DHT22;56665;41.106;16.688;2022-10-16T00:18:03;15.76;87.01
69464;DHT22;56665;41.106;16.688;2022-10-16T00:21:10;15.74;87.13
69464;DHT22;56665;41.106;16.688;2022-10-16T00:24:33;15.70;87.16
69464;DHT22;56665;41.106;16.688;2022-10-16T00:27:37;15.67;87.29
69464;DHT22;56665;41.106;16.688;2022-10-16T00:30:41;15.66;87.18
69464;DHT22;56665;41.106;16.688;2022-10-16T00:33:48;15.65;87.43
69464;DHT22;56665;41.106;16.688;2022-10-16T00:36:52;15.66;87.27
69464;DHT22;56665;41.106;16.688;2022-10-16T00:39:56;15.67;87.64
69464;DHT22;56665;41.106;16.688;2022-10-16T00:43:00;15.66;87.46
69464;DHT22;56665;41.106;16.688;2022-10-16T00:49:25;15.65;87.30
69464;DHT22;56665;41.106;16.688;2022-10-16T00:52:29;15.63;87.42
69464;DHT22;56665;41.106;16.688;2022-10-16T00:55:33;15.62;86.97
69464;DHT22;56665;41.106;16.688;2022-10-16T00:58:39;15.60;87.18
69464;DHT22;56665;41.106;16.688;2022-10-16T01:01:43;15.59;87.30
69464;DHT22;56665;41.106;16.688;2022-10-16T01:04:49;15.57;87.35
69464;DHT22;56665;41.106;16.688;2022-10-16T01:11:38;15.53;86.80
69464;DHT22;56665;41.106;16.688;2022-10-16T01:14:40;15.49;86.71
69464;DHT22;56665;41.106;16.688;2022-10-16T01:17:57;15.49;86.52
69464;DHT22;56665;41.106;16.688;2022-10-16T01:21:06;15.47;86.38
69464;DHT22;56665;41.106;16.688;2022-10-16T01:24:33;15.45;86.64
69464;DHT22;56665;41.106;16.688;2022-10-16T01:27:40;15.42;86.77
69464;DHT22;56665;41.106;16.688;2022-10-16T01:30:47;15.39;86.51
69464;DHT22;56665;41.106;16.688;2022-10-16T01:34:03;15.35;86.48
69464;DHT22;56665;41.106;16.688;2022-10-16T01:37:12;15.34;86.50
69464;DHT22;56665;41.106;16.688;2022-10-16T01:40:19;15.26;86.78
69464;DHT22;56665;41.106;16.688;2022-10-16T01:43:33;15.29;86.65
69464;DHT22;56665;41.106;16.688;2022-10-16T01:46:41;15.28;86.63
69464;DHT22;56665;41.106;16.688;2022-10-16T01:49:46;15.25;86.57
69464;DHT22;56665;41.106;16.688;2022-10-16T01:52:52;15.19;86.73
69464;DHT22;56665;41.106;16.688;2022-10-16T01:55:58;15.19;86.79
69464;DHT22;56665;41.106;16.688;2022-10-16T01:59:07;15.20;86.71
69464;DHT22;56665;41.106;16.688;2022-10-16T02:02:14;15.18;86.53
69464;DHT22;56665;41.106;16.688;2022-10-16T02:05:26;15.14;86.60
69464;DHT22;56665;41.106;16.688;2022-10-16T02:08:32;15.14;86.64
69464;DHT22;56665;41.106;16.688;2022-10-16T02:11:37;15.08;86.94
69464;DHT22;56665;41.106;16.688;2022-10-16T02:14:42;15.07;87.05
69464;DHT22;56665;41.106;16.688;2022-10-16T02:17:47;15.09;86.89
69464;DHT22;56665;41.106;16.688;2022-10-16T02:21:02;15.04;86.84
69464;DHT22;56665;41.106;16.688;2022-10-16T02:24:25;15.02;86.61
69464;DHT22;56665;41.106;16.688;2022-10-16T02:27:47;15.01;86.74
69464;DHT22;56665;41.106;16.688;2022-10-16T02:31:03;15.02;86.88
69464;DHT22;56665;41.106;16.688;2022-10-16T02:34:08;14.99;86.92
69464;DHT22;56665;41.106;16.688;2022-10-16T02:37:16;15.04;87.02
69464;DHT22;56665;41.106;16.688;2022-10-16T02:40:20;15.02;86.85
69464;DHT22;56665;41.106;16.688;2022-10-16T02:43:25;15.02;86.56
69464;DHT22;56665;41.106;16.688;2022-10-16T02:46:29;14.99;86.55
69464;DHT22;56665;41.106;16.688;2022-10-16T02:49:33;14.97;86.52
69464;DHT22;56665;41.106;16.688;2022-10-16T02:52:38;14.97;86.35
69464;DHT22;56665;41.106;16.688;2022-10-16T02:55:41;14.88;86.15
69464;DHT22;56665;41.106;16.688;2022-10-16T02:58:45;14.87;86.15
69464;DHT22;56665;41.106;16.688;2022-10-16T03:01:49;14.85;86.25
69464;DHT22;56665;41.106;16.688;2022-10-16T03:04:53;14.83;86.36
69464;DHT22;56665;41.106;16.688;2022-10-16T03:07:56;14.83;86.62
69464;DHT22;56665;41.106;16.688;2022-10-16T03:11:03;14.81;86.59
69464;DHT22;56665;41.106;16.688;2022-10-16T03:14:08;14.83;86.59
69464;DHT22;56665;41.106;16.688;2022-10-16T03:17:13;14.80;86.47
69464;DHT22;56665;41.106;16.688;2022-10-16T03:20:17;14.77;86.35
69464;DHT22;56665;41.106;16.688;2022-10-16T03:23:21;14.77;86.52
69464;DHT22;56665;41.106;16.688;2022-10-16T03:26:24;14.76;86.58
69464;DHT22;56665;41.106;16.688;2022-10-16T03:29:28;14.76;86.60
69464;DHT22;56665;41.106;16.688;2022-10-16T03:32:33;14.76;86.21
69464;DHT22;56665;41.106;16.688;2022-10-16T03:35:36;14.73;86.24
69464;DHT22;56665;41.106;16.688;2022-10-16T03:38:40;14.73;85.93
69464;DHT22;56665;41.106;16.688;2022-10-16T03:41:44;14.68;85.89
69464;DHT22;56665;41.106;16.688;2022-10-16T03:44:47;14.68;86.05
69464;DHT22;56665;41.106;16.688;2022-10-16T03:47:52;14.70;85.80
69464;DHT22;56665;41.106;16.688;2022-10-16T03:50:56;14.63;85.90
69464;DHT22;56665;41.106;16.688;2022-10-16T03:54:00;14.59;85.91
69464;DHT22;56665;41.106;16.688;2022-10-16T03:57:04;14.59;86.14
69464;DHT22;56665;41.106;16.688;2022-10-16T04:00:08;14.57;86.22
69464;DHT22;56665;41.106;16.688;2022-10-16T04:03:16;14.57;86.22
69464;DHT22;56665;41.106;16.688;2022-10-16T04:06:22;14.57;86.41
69464;DHT22;56665;41.106;16.688;2022-10-16T04:09:26;14.55;86.24
69464;DHT22;56665;41.106;16.688;2022-10-16T04:12:29;14.53;86.33
69464;DHT22;56665;41.106;16.688;2022-10-16T04:15:33;14.53;85.96
69464;DHT22;56665;41.106;16.688;2022-10-16T04:18:38;14.52;86.41
69464;DHT22;56665;41.106;16.688;2022-10-16T04:21:41;14.53;86.52
69464;DHT22;56665;41.106;16.688;2022-10-16T04:24:45;14.52;86.45
69464;DHT22;56665;41.106;16.688;2022-10-16T04:27:49;14.50;86.60
69464;DHT22;56665;41.106;16.688;2022-10-16T04:30:53;14.53;86.67
69464;DHT22;56665;41.106;16.688;2022-10-16T04:33:57;14.50;86.68
69464;DHT22;56665;41.106;16.688;2022-10-16T04:37:01;14.44;86.66
69464;DHT22;56665;41.106;16.688;2022-10-16T04:40:05;14.46;86.75
69464;DHT22;56665;41.106;16.688;2022-10-16T04:43:10;14.47;86.77
69464;DHT22;56665;41.106;16.688;2022-10-16T04:46:15;14.44;86.74
69464;DHT22;56665;41.106;16.688;2022-10-16T04:49:19;14.46;86.95
69464;DHT22;56665;41.106;16.688;2022-10-16T04:52:23;14.44;86.98
69464;DHT22;56665;41.106;16.688;2022-10-16T04:55:28;14.41;86.95
69464;DHT22;56665;41.106;16.688;2022-10-16T04:58:33;14.41;87.02
69464;DHT22;56665;41.106;16.688;2022-10-16T05:01:36;14.43;86.97
69464;DHT22;56665;41.106;16.688;2022-10-16T05:04:40;14.41;87.03
69464;DHT22;56665;41.106;16.688;2022-10-16T05:07:48;14.44;87.16
69464;DHT22;56665;41.106;16.688;2022-10-16T05:10:53;14.43;87.17
69464;DHT22;56665;41.106;16.688;2022-10-16T05:13:58;14.46;87.03
69464;DHT22;56665;41.106;16.688;2022-10-16T05:17:03;14.47;87.11
69464;DHT22;56665;41.106;16.688;2022-10-16T05:20:07;14.49;87.16
69464;DHT22;56665;41.106;16.688;2022-10-16T05:23:10;14.56;87.17
69464;DHT22;56665;41.106;16.688;2022-10-16T05:26:15;14.56;87.04
69464;DHT22;56665;41.106;16.688;2022-10-16T05:29:18;14.61;86.97
69464;DHT22;56665;41.106;16.688;2022-10-16T05:32:24;14.66;87.03
69464;DHT22;56665;41.106;16.688;2022-10-16T05:35:27;14.71;86.57
69464;DHT22;56665;41.106;16.688;2022-10-16T05:38:31;14.73;86.53
69464;DHT22;56665;41.106;16.688;2022-10-16T05:41:35;14.77;86.47
69464;DHT22;56665;41.106;16.688;2022-10-16T05:44:38;14.85;86.07
69464;DHT22;56665;41.106;16.688;2022-10-16T05:47:44;14.95;86.06
69464;DHT22;56665;41.106;16.688;2022-10-16T05:50:48;15.04;85.98
69464;DHT22;56665;41.106;16.688;2022-10-16T05:53:52;15.18;85.55
69464;DHT22;56665;41.106;16.688;2022-10-16T05:56:57;15.34;85.29
69464;DHT22;56665;41.106;16.688;2022-10-16T06:00:03;15.49;84.85
69464;DHT22;56665;41.106;16.688;2022-10-16T06:03:17;15.66;84.34
69464;DHT22;56665;41.106;16.688;2022-10-16T06:06:24;15.83;83.92
69464;DHT22;56665;41.106;16.688;2022-10-16T06:09:30;16.03;83.32
69464;DHT22;56665;41.106;16.688;2022-10-16T06:12:33;16.24;83.02
69464;DHT22;56665;41.106;16.688;2022-10-16T06:15:38;16.45;82.40
69464;DHT22;56665;41.106;16.688;2022-10-16T06:18:42;16.68;82.09
69464;DHT22;56665;41.106;16.688;2022-10-16T06:21:46;16.87;81.29
69464;DHT22;56665;41.106;16.688;2022-10-16T06:24:50;17.07;80.79
69464;DHT22;56665;41.106;16.688;2022-10-16T06:27:57;17.27;80.36
69464;DHT22;56665;41.106;16.688;2022-10-16T06:31:01;17.48;79.82
69464;DHT22;56665;41.106;16.688;2022-10-16T06:34:10;17.71;79.29
69464;DHT22;56665;41.106;16.688;2022-10-16T06:37:14;17.93;78.80
69464;DHT22;56665;41.106;16.688;2022-10-16T06:40:20;18.18;78.44
69464;DHT22;56665;41.106;16.688;2022-10-16T06:43:24;18.41;77.71
69464;DHT22;56665;41.106;16.688;2022-10-16T06:46:28;18.61;77.31
69464;DHT22;56665;41.106;16.688;2022-10-16T06:49:33;18.86;76.87
69464;DHT22;56665;41.106;16.688;2022-10-16T06:52:36;19.08;76.73
69464;DHT22;56665;41.106;16.688;2022-10-16T06:55:40;19.30;76.18
69464;DHT22;56665;41.106;16.688;2022-10-16T06:58:44;19.51;75.84
69464;DHT22;56665;41.106;16.688;2022-10-16T07:01:48;19.77;75.47
69464;DHT22;56665;41.106;16.688;2022-10-16T07:04:53;20.00;75.29
69464;DHT22;56665;41.106;16.688;2022-10-16T07:07:56;20.22;74.89
69464;DHT22;56665;41.106;16.688;2022-10-16T07:11:04;20.47;74.65
69464;DHT22;56665;41.106;16.688;2022-10-16T07:14:19;20.72;73.90
69464;DHT22;56665;41.106;16.688;2022-10-16T07:17:23;20.96;73.89
69464;DHT22;56665;41.106;16.688;2022-10-16T07:20:27;21.18;73.24
69464;DHT22;56665;41.106;16.688;2022-10-16T07:23:33;21.42;73.01
69464;DHT22;56665;41.106;16.688;2022-10-16T07:26:38;21.67;72.51
69464;DHT22;56665;41.106;16.688;2022-10-16T07:29:44;21.93;71.94
69464;DHT22;56665;41.106;16.688;2022-10-16T07:32:49;22.16;71.23
69464;DHT22;56665;41.106;16.688;2022-10-16T07:35:54;22.35;70.81
69464;DHT22;56665;41.106;16.688;2022-10-16T07:38:58;22.55;70.66
69464;DHT22;56665;41.106;16.688;2022-10-16T07:42:02;22.75;70.08
69464;DHT22;56665;41.106;16.688;2022-10-16T07:45:06;22.95;69.26
69464;DHT22;56665;41.106;16.688;2022-10-16T07:48:11;23.06;68.64
69464;DHT22;56665;41.106;16.688;2022-10-16T07:51:21;23.22;68.30
69464;DHT22;56665;41.106;16.688;2022-10-16T07:54:25;23.29;67.84
69464;DHT22;56665;41.106;16.688;2022-10-16T07:57:29;23.30;67.94
69464;DHT22;56665;41.106;16.688;2022-10-16T08:00:36;23.42;68.05
69464;DHT22;56665;41.106;16.688;2022-10-16T08:03:47;23.60;67.75
69464;DHT22;56665;41.106;16.688;2022-10-16T08:06:51;23.84;67.15
69464;DHT22;56665;41.106;16.688;2022-10-16T08:09:56;24.08;66.69
69464;DHT22;56665;41.106;16.688;2022-10-16T08:13:01;24.28;65.99
69464;DHT22;56665;41.106;16.688;2022-10-16T08:16:07;24.45;65.60
69464;DHT22;56665;41.106;16.688;2022-10-16T08:19:11;24.64;65.22
69464;DHT22;56665;41.106;16.688;2022-10-16T08:22:16;24.74;64.99
69464;DHT22;56665;41.106;16.688;2022-10-16T08:25:20;24.87;64.20
69464;DHT22;56665;41.106;16.688;2022-10-16T08:28:24;24.86;63.43
69464;DHT22;56665;41.106;16.688;2022-10-16T08:31:29;25.01;63.50
69464;DHT22;56665;41.106;16.688;2022-10-16T08:34:33;25.15;62.71
69464;DHT22;56665;41.106;16.688;2022-10-16T08:37:37;25.35;62.11
69464;DHT22;56665;41.106;16.688;2022-10-16T08:40:42;25.37;61.41
69464;DHT22;56665;41.106;16.688;2022-10-16T08:48:20;25.45;60.90
69464;DHT22;56665;41.106;16.688;2022-10-16T08:51:03;25.68;60.25
69464;DHT22;56665;41.106;16.688;2022-10-16T08:54:26;25.69;59.23
69464;DHT22;56665;41.106;16.688;2022-10-16T08:57:31;26.13;58.93
69464;DHT22;56665;41.106;16.688;2022-10-16T09:00:36;26.40;58.18
69464;DHT22;56665;41.106;16.688;2022-10-16T09:03:59;26.67;58.02
69464;DHT22;56665;41.106;16.688;2022-10-16T09:07:18;26.84;56.44
69464;DHT22;56665;41.106;16.688;2022-10-16T09:18:59;27.08;55.89
69464;DHT22;56665;41.106;16.688;2022-10-16T09:21:31;27.29;54.57
69464;DHT22;56665;41.106;16.688;2022-10-16T09:24:38;27.24;54.81
69464;DHT22;56665;41.106;16.688;2022-10-16T09:27:44;27.53;54.85
69464;DHT22;56665;41.106;16.688;2022-10-16T09:30:50;27.60;53.90
69464;DHT22;56665;41.106;16.688;2022-10-16T09:33:58;27.47;54.02
69464;DHT22;56665;41.106;16.688;2022-10-16T09:37:09;27.53;53.73
69464;DHT22;56665;41.106;16.688;2022-10-16T09:40:31;27.49;53.87
69464;DHT22;56665;41.106;16.688;2022-10-16T09:44:02;27.42;53.24
69464;DHT22;56665;41.106;16.688;2022-10-16T09:47:17;27.40;53.48
69464;DHT22;56665;41.106;16.688;2022-10-16T09:50:24;27.39;52.45
69464;DHT22;56665;41.106;16.688;2022-10-16T09:53:43;27.42;53.23
69464;DHT22;56665;41.106;16.688;2022-10-16T09:56:49;27.11;55.74
69464;DHT22;56665;41.106;16.688;2022-10-16T09:59:57;27.01;56.06
69464;DHT22;56665;41.106;16.688;2022-10-16T10:03:01;26.45;57.49
69464;DHT22;56665;41.106;16.688;2022-10-16T10:06:25;26.16;57.64
69464;DHT22;56665;41.106;16.688;2022-10-16T10:09:34;25.75;58.65
69464;DHT22;56665;41.106;16.688;2022-10-16T10:12:41;25.17;59.37
69464;DHT22;56665;41.106;16.688;2022-10-16T10:15:45;25.57;58.87
69464;DHT22;56665;41.106;16.688;2022-10-16T10:18:58;25.41;59.01
69464;DHT22;56665;41.106;16.688;2022-10-16T10:22:11;25.73;58.64
69464;DHT22;56665;41.106;16.688;2022-10-16T10:25:22;25.82;58.44
69464;DHT22;56665;41.106;16.688;2022-10-16T10:35:24;25.24;57.37
69464;DHT22;56665;41.106;16.688;2022-10-16T10:38:45;25.14;57.73
69464;DHT22;56665;41.106;16.688;2022-10-16T10:42:27;25.21;56.16
69464;DHT22;56665;41.106;16.688;2022-10-16T10:50:14;25.68;54.69
69464;DHT22;56665;41.106;16.688;2022-10-16T10:53:54;25.68;55.81
69464;DHT22;56665;41.106;16.688;2022-10-16T10:57:11;25.73;54.85
69464;DHT22;56665;41.106;16.688;2022-10-16T11:00:33;25.69;55.85
69464;DHT22;56665;41.106;16.688;2022-10-16T11:07:25;25.65;56.23
69464;DHT22;56665;41.106;16.688;2022-10-16T11:14:14;25.32;56.12
69464;DHT22;56665;41.106;16.688;2022-10-16T11:17:45;25.07;56.60
69464;DHT22;56665;41.106;16.688;2022-10-16T11:21:02;25.06;57.71
69464;DHT22;56665;41.106;16.688;2022-10-16T11:24:20;24.79;59.16
69464;DHT22;56665;41.106;16.688;2022-10-16T11:31:40;24.22;61.10
69464;DHT22;56665;41.106;16.688;2022-10-16T11:34:50;24.14;60.20
69464;DHT22;56665;41.106;16.688;2022-10-16T11:37:56;23.97;61.30
69464;DHT22;56665;41.106;16.688;2022-10-16T11:41:15;23.74;62.47
69464;DHT22;56665;41.106;16.688;2022-10-16T11:50:57;23.40;62.03
69464;DHT22;56665;41.106;16.688;2022-10-16T11:54:45;23.47;62.50
69464;DHT22;56665;41.106;16.688;2022-10-16T11:57:59;23.60;63.86
69464;DHT22;56665;41.106;16.688;2022-10-16T12:04:34;23.53;63.45
69464;DHT22;56665;41.106;16.688;2022-10-16T12:08:02;23.49;63.28
69464;DHT22;56665;41.106;16.688;2022-10-16T12:11:37;23.13;64.66
69464;DHT22;56665;41.106;16.688;2022-10-16T12:14:41;23.22;64.37
69464;DHT22;56665;41.106;16.688;2022-10-16T12:17:45;23.42;64.19
69464;DHT22;56665;41.106;16.688;2022-10-16T12:20:57;23.54;63.92
69464;DHT22;56665;41.106;16.688;2022-10-16T12:27:30;23.57;64.21
69464;DHT22;56665;41.106;16.688;2022-10-16T12:30:37;23.36;63.79
69464;DHT22;56665;41.106;16.688;2022-10-16T12:33:52;23.19;64.47
69464;DHT22;56665;41.106;16.688;2022-10-16T12:37:13;23.22;65.28
69464;DHT22;56665;41.106;16.688;2022-10-16T12:40:28;23.12;64.79
69464;DHT22;56665;41.106;16.688;2022-10-16T12:43:41;23.32;64.82
69464;DHT22;56665;41.106;16.688;2022-10-16T12:46:47;23.36;64.39
69464;DHT22;56665;41.106;16.688;2022-10-16T12:49:53;23.00;65.55
69464;DHT22;56665;41.106;16.688;2022-10-16T12:52:59;22.84;65.36
69464;DHT22;56665;41.106;16.688;2022-10-16T12:56:24;23.06;65.62
69464;DHT22;56665;41.106;16.688;2022-10-16T12:59:52;23.16;64.79
69464;DHT22;56665;41.106;16.688;2022-10-16T13:07:10;23.11;64.36
69464;DHT22;56665;41.106;16.688;2022-10-16T13:14:21;22.58;65.84
69464;DHT22;56665;41.106;16.688;2022-10-16T13:17:43;22.72;65.92
69464;DHT22;56665;41.106;16.688;2022-10-16T13:24:42;22.76;64.93
69464;DHT22;56665;41.106;16.688;2022-10-16T13:28:05;22.75;64.54
69464;DHT22;56665;41.106;16.688;2022-10-16T13:31:22;22.88;65.17
69464;DHT22;56665;41.106;16.688;2022-10-16T13:34:49;22.76;66.11
69464;DHT22;56665;41.106;16.688;2022-10-16T13:38:12;22.76;66.56
69464;DHT22;56665;41.106;16.688;2022-10-16T13:41:18;22.69;67.08
69464;DHT22;56665;41.106;16.688;2022-10-16T13:44:21;22.64;67.36
69464;DHT22;56665;41.106;16.688;2022-10-16T13:47:28;22.61;67.76
69464;DHT22;56665;41.106;16.688;2022-10-16T13:50:32;22.57;67.33
69464;DHT22;56665;41.106;16.688;2022-10-16T13:53:37;22.48;67.30
69464;DHT22;56665;41.106;16.688;2022-10-16T13:56:41;22.54;67.35
69464;DHT22;56665;41.106;16.688;2022-10-16T13:59:44;22.51;67.58
69464;DHT22;56665;41.106;16.688;2022-10-16T14:03:02;22.50;67.83
69464;DHT22;56665;41.106;16.688;2022-10-16T14:06:12;22.35;67.52
69464;DHT22;56665;41.106;16.688;2022-10-16T14:09:25;22.40;67.93
69464;DHT22;56665;41.106;16.688;2022-10-16T14:12:29;22.24;69.09
69464;DHT22;56665;41.106;16.688;2022-10-16T14:15:37;22.10;69.43
69464;DHT22;56665;41.106;16.688;2022-10-16T14:18:41;22.13;69.66
69464;DHT22;56665;41.106;16.688;2022-10-16T14:21:44;22.16;68.22
69464;DHT22;56665;41.106;16.688;2022-10-16T14:28:43;21.85;69.65
69464;DHT22;56665;41.106;16.688;2022-10-16T14:32:00;21.79;70.36
69464;DHT22;56665;41.106;16.688;2022-10-16T14:35:11;21.59;71.01
69464;DHT22;56665;41.106;16.688;2022-10-16T14:38:26;21.38;71.93
69464;DHT22;56665;41.106;16.688;2022-10-16T14:41:31;21.35;72.10
69464;DHT22;56665;41.106;16.688;2022-10-16T14:44:36;21.24;72.48
69464;DHT22;56665;41.106;16.688;2022-10-16T14:47:49;21.17;73.18
69464;DHT22;56665;41.106;16.688;2022-10-16T14:50:53;21.08;73.57
69464;DHT22;56665;41.106;16.688;2022-10-16T14:53:57;20.94;74.37
69464;DHT22;56665;41.106;16.688;2022-10-16T14:57:01;20.87;74.90
69464;DHT22;56665;41.106;16.688;2022-10-16T15:00:23;20.73;75.26
69464;DHT22;56665;41.106;16.688;2022-10-16T15:03:27;20.59;75.56
69464;DHT22;56665;41.106;16.688;2022-10-16T15:06:31;20.38;77.09
69464;DHT22;56665;41.106;16.688;2022-10-16T15:09:35;20.25;77.66
69464;DHT22;56665;41.106;16.688;2022-10-16T15:12:40;20.24;77.76
69464;DHT22;56665;41.106;16.688;2022-10-16T15:15:45;20.21;76.98
69464;DHT22;56665;41.106;16.688;2022-10-16T15:18:50;20.18;77.04
69464;DHT22;56665;41.106;16.688;2022-10-16T15:21:54;20.11;77.69
69464;DHT22;56665;41.106;16.688;2022-10-16T15:24:58;20.01;78.45
69464;DHT22;56665;41.106;16.688;2022-10-16T15:28:03;19.97;79.16
69464;DHT22;56665;41.106;16.688;2022-10-16T15:31:07;19.89;79.17
69464;DHT22;56665;41.106;16.688;2022-10-16T15:34:11;19.87;79.50
69464;DHT22;56665;41.106;16.688;2022-10-16T15:37:16;19.87;79.74
69464;DHT22;56665;41.106;16.688;2022-10-16T15:40:21;19.75;80.58
69464;DHT22;56665;41.106;16.688;2022-10-16T15:43:25;19.70;80.96
69464;DHT22;56665;41.106;16.688;2022-10-16T15:46:31;19.57;80.89
69464;DHT22;56665;41.106;16.688;2022-10-16T15:49:37;19.49;81.26
69464;DHT22;56665;41.106;16.688;2022-10-16T15:52:41;19.49;81.16
69464;DHT22;56665;41.106;16.688;2022-10-16T15:55:45;19.46;81.59
69464;DHT22;56665;41.106;16.688;2022-10-16T15:58:48;19.42;82.07
69464;DHT22;56665;41.106;16.688;2022-10-16T16:01:52;19.30;82.53
69464;DHT22;56665;41.106;16.688;2022-10-16T16:04:57;19.22;82.87
69464;DHT22;56665;41.106;16.688;2022-10-16T16:11:55;19.12;83.60
69464;DHT22;56665;41.106;16.688;2022-10-16T16:15:01;19.02;83.80
69464;DHT22;56665;41.106;16.688;2022-10-16T16:18:04;18.99;84.28
69464;DHT22;56665;41.106;16.688;2022-10-16T16:21:13;18.99;84.07
69464;DHT22;56665;41.106;16.688;2022-10-16T16:24:17;18.95;84.37
69464;DHT22;56665;41.106;16.688;2022-10-16T16:27:21;18.89;84.60
69464;DHT22;56665;41.106;16.688;2022-10-16T16:30:26;18.82;84.95
69464;DHT22;56665;41.106;16.688;2022-10-16T16:33:30;18.82;85.24
69464;DHT22;56665;41.106;16.688;2022-10-16T16:36:36;18.77;85.34
69464;DHT22;56665;41.106;16.688;2022-10-16T16:39:40;18.72;85.40
69464;DHT22;56665;41.106;16.688;2022-10-16T16:42:43;18.68;85.52
69464;DHT22;56665;41.106;16.688;2022-10-16T16:45:50;18.69;85.82
69464;DHT22;56665;41.106;16.688;2022-10-16T16:48:57;18.63;85.78
69464;DHT22;56665;41.106;16.688;2022-10-16T16:52:00;18.60;86.06
69464;DHT22;56665;41.106;16.688;2022-10-16T16:55:34;18.56;86.09
69464;DHT22;56665;41.106;16.688;2022-10-16T16:58:38;18.53;86.41
69464;DHT22;56665;41.106;16.688;2022-10-16T17:01:42;18.48;86.52
69464;DHT22;56665;41.106;16.688;2022-10-16T17:04:46;18.48;86.69
69464;DHT22;56665;41.106;16.688;2022-10-16T17:07:51;18.47;86.84
69464;DHT22;56665;41.106;16.688;2022-10-16T17:10:56;18.51;86.76
69464;DHT22;56665;41.106;16.688;2022-10-16T17:14:01;18.51;86.70
69464;DHT22;56665;41.106;16.688;2022-10-16T17:17:06;18.54;86.49
69464;DHT22;56665;41.106;16.688;2022-10-16T17:20:10;18.56;86.43
69464;DHT22;56665;41.106;16.688;2022-10-16T17:23:15;18.53;86.45
69464;DHT22;56665;41.106;16.688;2022-10-16T17:26:19;18.56;86.37
69464;DHT22;56665;41.106;16.688;2022-10-16T17:29:23;18.50;86.25
69464;DHT22;56665;41.106;16.688;2022-10-16T17:32:26;18.48;86.30
69464;DHT22;56665;41.106;16.688;2022-10-16T17:35:45;18.46;86.27
69464;DHT22;56665;41.106;16.688;2022-10-16T17:38:49;18.40;86.53
69464;DHT22;56665;41.106;16.688;2022-10-16T17:41:53;18.37;86.79
69464;DHT22;56665;41.106;16.688;2022-10-16T17:44:57;18.37;86.86
69464;DHT22;56665;41.106;16.688;2022-10-16T17:48:02;18.36;86.80
69464;DHT22;56665;41.106;16.688;2022-10-16T17:51:07;18.30;86.79
69464;DHT22;56665;41.106;16.688;2022-10-16T17:54:12;18.27;86.95
69464;DHT22;56665;41.106;16.688;2022-10-16T17:57:17;18.23;87.08
69464;DHT22;56665;41.106;16.688;2022-10-16T18:00:20;18.18;87.14
69464;DHT22;56665;41.106;16.688;2022-10-16T18:03:24;18.18;87.29
69464;DHT22;56665;41.106;16.688;2022-10-16T18:06:30;18.18;87.31
69464;DHT22;56665;41.106;16.688;2022-10-16T18:09:36;18.13;86.92
69464;DHT22;56665;41.106;16.688;2022-10-16T18:12:39;18.06;87.01
69464;DHT22;56665;41.106;16.688;2022-10-16T18:15:43;18.00;87.00
69464;DHT22;56665;41.106;16.688;2022-10-16T18:18:47;17.97;86.84
69464;DHT22;56665;41.106;16.688;2022-10-16T18:21:52;17.92;86.81
69464;DHT22;56665;41.106;16.688;2022-10-16T18:24:58;17.88;86.97
69464;DHT22;56665;41.106;16.688;2022-10-16T18:28:02;17.86;87.56
69464;DHT22;56665;41.106;16.688;2022-10-16T18:31:08;17.88;87.48
69464;DHT22;56665;41.106;16.688;2022-10-16T18:34:13;17.90;87.24
69464;DHT22;56665;41.106;16.688;2022-10-16T18:37:17;17.92;86.94
69464;DHT22;56665;41.106;16.688;2022-10-16T18:40:22;17.93;86.60
69464;DHT22;56665;41.106;16.688;2022-10-16T18:43:29;17.89;86.30
69464;DHT22;56665;41.106;16.688;2022-10-16T18:46:33;17.86;86.20
69464;DHT22;56665;41.106;16.688;2022-10-16T18:49:36;17.75;85.97
69464;DHT22;56665;41.106;16.688;2022-10-16T18:52:46;17.72;86.19
69464;DHT22;56665;41.106;16.688;2022-10-16T18:55:52;17.69;86.21
69464;DHT22;56665;41.106;16.688;2022-10-16T18:58:58;17.69;86.16
69464;DHT22;56665;41.106;16.688;2022-10-16T19:02:02;17.59;85.61
69464;DHT22;56665;41.106;16.688;2022-10-16T19:05:06;17.51;85.45
69464;DHT22;56665;41.106;16.688;2022-10-16T19:08:14;17.42;85.77
69464;DHT22;56665;41.106;16.688;2022-10-16T19:11:20;17.35;85.95
69464;DHT22;56665;41.106;16.688;2022-10-16T19:14:24;17.30;86.11
69464;DHT22;56665;41.106;16.688;2022-10-16T19:17:28;17.28;86.25
69464;DHT22;56665;41.106;16.688;2022-10-16T19:20:33;17.21;86.25
69464;DHT22;56665;41.106;16.688;2022-10-16T19:23:38;17.20;86.25
69464;DHT22;56665;41.106;16.688;2022-10-16T19:26:43;17.11;86.28
69464;DHT22;56665;41.106;16.688;2022-10-16T19:29:49;17.08;86.30
69464;DHT22;56665;41.106;16.688;2022-10-16T19:32:53;17.03;86.30
69464;DHT22;56665;41.106;16.688;2022-10-16T19:36:14;17.02;86.42
69464;DHT22;56665;41.106;16.688;2022-10-16T19:39:20;16.95;86.46
69464;DHT22;56665;41.106;16.688;2022-10-16T19:42:23;16.95;86.40
69464;DHT22;56665;41.106;16.688;2022-10-16T19:45:27;16.90;86.31
69464;DHT22;56665;41.106;16.688;2022-10-16T19:48:33;16.90;86.46
69464;DHT22;56665;41.106;16.688;2022-10-16T19:51:38;16.85;86.52
69464;DHT22;56665;41.106;16.688;2022-10-16T19:54:42;16.86;86.54
69464;DHT22;56665;41.106;16.688;2022-10-16T19:57:46;16.83;86.59
69464;DHT22;56665;41.106;16.688;2022-10-16T20:00:50;16.80;86.50
69464;DHT22;56665;41.106;16.688;2022-10-16T20:03:54;16.79;86.43
69464;DHT22;56665;41.106;16.688;2022-10-16T20:06:57;16.77;86.50
69464;DHT22;56665;41.106;16.688;2022-10-16T20:10:02;16.79;86.59
69464;DHT22;56665;41.106;16.688;2022-10-16T20:13:06;16.76;86.60
69464;DHT22;56665;41.106;16.688;2022-10-16T20:16:12;16.75;86.66
69464;DHT22;56665;41.106;16.688;2022-10-16T20:19:17;16.76;86.66
69464;DHT22;56665;41.106;16.688;2022-10-16T20:22:20;16.76;86.67
69464;DHT22;56665;41.106;16.688;2022-10-16T20:25:24;16.72;86.70
69464;DHT22;56665;41.106;16.688;2022-10-16T20:28:28;16.72;86.83
69464;DHT22;56665;41.106;16.688;2022-10-16T20:31:34;16.72;86.86
69464;DHT22;56665;41.106;16.688;2022-10-16T20:34:38;16.75;86.57
69464;DHT22;56665;41.106;16.688;2022-10-16T20:37:42;16.68;86.48
69464;DHT22;56665;41.106;16.688;2022-10-16T20:40:51;16.68;86.36